sensor_id;sensor_type;location;lat;lon;timestamp;P1;durP1;ratioP1;P2;durP2;ratioP2
13941;SDS011;7043;51.630;7.254;2023-02-16T00:00:11;28.77;;;21.47;;
13941;SDS011;7043;51.630;7.254;2023-02-16T00:02:38;30.50;;;22.13;;
13941;SDS011;7043;51.630;7.254;2023-02-16T00:05:11;30.87;;;22.80;;
13941;SDS011;7043;51.630;7.254;2023-02-16T00:07:46;30.27;;;23.07;;
13941;SDS011;7043;51.630;7.254;2023-02-16T00:10:12;27.53;;;21.97;;
13941;SDS011;7043;51.630;7.254;2023-02-16T00:12:38;32.93;;;24.03;;
13941;SDS011;7043;51.630;7.254;2023-02-16T00:15:23;29.17;;;22.30;;
13941;SDS011;7043;51.630;7.254;2023-02-16T00:17:49;30.17;;;22.50;;
13941;SDS011;7043;51.630;7.254;2023-02-16T00:20:15;30.80;;;22.07;;
13941;SDS011;7043;51.630;7.254;2023-02-16T00:22:41;32.67;;;22.73;;
13941;SDS011;7043;51.630;7.254;2023-02-16T00:25:07;27.67;;;21.90;;
13941;SDS011;7043;51.630;7.254;2023-02-16T00:27:33;30.07;;;23.57;;
13941;SDS011;7043;51.630;7.254;2023-02-16T00:29:59;31.80;;;23.77;;
13941;SDS011;7043;51.630;7.254;2023-02-16T00:32:25;32.67;;;23.63;;
13941;SDS011;7043;51.630;7.254;2023-02-16T00:34:51;29.53;;;22.87;;
13941;SDS011;7043;51.630;7.254;2023-02-16T00:37:17;30.57;;;23.03;;
13941;SDS011;7043;51.630;7.254;2023-02-16T00:39:43;29.90;;;23.93;;
13941;SDS011;7043;51.630;7.254;2023-02-16T00:44:39;30.20;;;23.50;;
13941;SDS011;7043;51.630;7.254;2023-02-16T00:47:12;32.23;;;23.50;;
13941;SDS011;7043;51.630;7.254;2023-02-16T00:49:41;31.43;;;24.03;;
13941;SDS011;7043;51.630;7.254;2023-02-16T00:54:52;32.37;;;23.30;;
13941;SDS011;7043;51.630;7.254;2023-02-16T00:57:18;32.23;;;24.93;;
13941;SDS011;7043;51.630;7.254;2023-02-16T00:59:44;31.03;;;24.00;;
13941;SDS011;7043;51.630;7.254;2023-02-16T01:02:11;31.37;;;23.17;;
13941;SDS011;7043;51.630;7.254;2023-02-16T01:04:37;34.20;;;23.57;;
13941;SDS011;7043;51.630;7.254;2023-02-16T01:07:12;31.03;;;23.97;;
13941;SDS011;7043;51.630;7.254;2023-02-16T01:09:58;34.43;;;24.30;;
13941;SDS011;7043;51.630;7.254;2023-02-16T01:12:42;31.10;;;22.97;;
13941;SDS011;7043;51.630;7.254;2023-02-16T01:15:09;32.60;;;23.57;;
13941;SDS011;7043;51.630;7.254;2023-02-16T01:17:37;34.53;;;24.50;;
13941;SDS011;7043;51.630;7.254;2023-02-16T01:20:08;32.47;;;23.60;;
13941;SDS011;7043;51.630;7.254;2023-02-16T01:22:38;31.00;;;23.23;;
13941;SDS011;7043;51.630;7.254;2023-02-16T01:25:04;32.73;;;23.43;;
13941;SDS011;7043;51.630;7.254;2023-02-16T01:27:30;30.27;;;23.60;;
13941;SDS011;7043;51.630;7.254;2023-02-16T01:29:57;30.80;;;22.87;;
13941;SDS011;7043;51.630;7.254;2023-02-16T01:32:23;30.30;;;22.87;;
13941;SDS011;7043;51.630;7.254;2023-02-16T01:34:49;30.07;;;22.73;;
13941;SDS011;7043;51.630;7.254;2023-02-16T01:37:15;32.23;;;23.27;;
13941;SDS011;7043;51.630;7.254;2023-02-16T01:39:41;29.90;;;23.77;;
13941;SDS011;7043;51.630;7.254;2023-02-16T01:44:35;30.03;;;23.17;;
13941;SDS011;7043;51.630;7.254;2023-02-16T01:47:11;31.73;;;24.23;;
13941;SDS011;7043;51.630;7.254;2023-02-16T01:49:40;34.63;;;24.67;;
13941;SDS011;7043;51.630;7.254;2023-02-16T01:52:11;31.23;;;23.40;;
13941;SDS011;7043;51.630;7.254;2023-02-16T01:54:43;31.70;;;23.93;;
13941;SDS011;7043;51.630;7.254;2023-02-16T02:02:26;32.63;;;24.37;;
13941;SDS011;7043;51.630;7.254;2023-02-16T02:04:57;32.47;;;24.57;;
13941;SDS011;7043;51.630;7.254;2023-02-16T02:07:50;32.17;;;24.43;;
13941;SDS011;7043;51.630;7.254;2023-02-16T02:13:05;31.20;;;23.53;;
13941;SDS011;7043;51.630;7.254;2023-02-16T02:15:32;30.43;;;23.00;;
13941;SDS011;7043;51.630;7.254;2023-02-16T02:17:58;31.30;;;23.80;;
13941;SDS011;7043;51.630;7.254;2023-02-16T02:42:04;31.03;;;23.27;;
13941;SDS011;7043;51.630;7.254;2023-02-16T02:44:36;31.07;;;23.73;;
13941;SDS011;7043;51.630;7.254;2023-02-16T02:47:04;29.20;;;23.00;;
13941;SDS011;7043;51.630;7.254;2023-02-16T02:49:30;29.00;;;22.60;;
13941;SDS011;7043;51.630;7.254;2023-02-16T02:51:56;29.40;;;21.77;;
13941;SDS011;7043;51.630;7.254;2023-02-16T02:54:24;31.77;;;22.73;;
13941;SDS011;7043;51.630;7.254;2023-02-16T03:02:59;29.60;;;21.63;;
13941;SDS011;7043;51.630;7.254;2023-02-16T03:05:28;31.03;;;23.07;;
13941;SDS011;7043;51.630;7.254;2023-02-16T03:07:57;29.50;;;23.37;;
13941;SDS011;7043;51.630;7.254;2023-02-16T03:10:30;29.10;;;21.50;;
13941;SDS011;7043;51.630;7.254;2023-02-16T03:13:19;31.27;;;22.83;;
13941;SDS011;7043;51.630;7.254;2023-02-16T03:15:47;32.43;;;23.97;;
13941;SDS011;7043;51.630;7.254;2023-02-16T03:18:14;30.77;;;23.67;;
13941;SDS011;7043;51.630;7.254;2023-02-16T03:20:59;30.90;;;23.57;;
13941;SDS011;7043;51.630;7.254;2023-02-16T03:23:44;29.83;;;22.23;;
13941;SDS011;7043;51.630;7.254;2023-02-16T03:26:31;31.17;;;23.50;;
13941;SDS011;7043;51.630;7.254;2023-02-16T03:29:16;29.20;;;22.60;;
13941;SDS011;7043;51.630;7.254;2023-02-16T03:31:45;30.57;;;22.90;;
13941;SDS011;7043;51.630;7.254;2023-02-16T03:34:12;32.33;;;22.97;;
13941;SDS011;7043;51.630;7.254;2023-02-16T03:36:40;28.47;;;21.80;;
13941;SDS011;7043;51.630;7.254;2023-02-16T03:39:06;29.00;;;22.47;;
13941;SDS011;7043;51.630;7.254;2023-02-16T03:41:33;30.10;;;23.10;;
13941;SDS011;7043;51.630;7.254;2023-02-16T03:44:00;31.40;;;23.20;;
13941;SDS011;7043;51.630;7.254;2023-02-16T03:46:25;29.63;;;22.47;;
13941;SDS011;7043;51.630;7.254;2023-02-16T03:48:51;28.63;;;22.33;;
13941;SDS011;7043;51.630;7.254;2023-02-16T03:51:17;29.37;;;22.80;;
13941;SDS011;7043;51.630;7.254;2023-02-16T03:53:43;30.30;;;22.00;;
13941;SDS011;7043;51.630;7.254;2023-02-16T03:56:09;28.90;;;22.27;;
13941;SDS011;7043;51.630;7.254;2023-02-16T03:58:35;30.93;;;23.10;;
13941;SDS011;7043;51.630;7.254;2023-02-16T04:01:01;30.90;;;23.03;;
13941;SDS011;7043;51.630;7.254;2023-02-16T04:03:27;28.70;;;21.83;;
13941;SDS011;7043;51.630;7.254;2023-02-16T04:05:53;30.13;;;22.13;;
13941;SDS011;7043;51.630;7.254;2023-02-16T04:08:20;29.90;;;22.53;;
13941;SDS011;7043;51.630;7.254;2023-02-16T04:10:46;31.33;;;22.80;;
13941;SDS011;7043;51.630;7.254;2023-02-16T04:13:12;30.43;;;23.17;;
13941;SDS011;7043;51.630;7.254;2023-02-16T04:15:38;28.57;;;22.13;;
13941;SDS011;7043;51.630;7.254;2023-02-16T04:18:05;30.43;;;22.20;;
13941;SDS011;7043;51.630;7.254;2023-02-16T04:20:32;31.03;;;23.17;;
13941;SDS011;7043;51.630;7.254;2023-02-16T04:22:58;30.67;;;22.63;;
13941;SDS011;7043;51.630;7.254;2023-02-16T04:25:24;30.73;;;23.07;;
13941;SDS011;7043;51.630;7.254;2023-02-16T04:27:51;33.10;;;24.07;;
13941;SDS011;7043;51.630;7.254;2023-02-16T04:30:18;29.87;;;23.17;;
13941;SDS011;7043;51.630;7.254;2023-02-16T04:32:44;31.57;;;22.90;;
13941;SDS011;7043;51.630;7.254;2023-02-16T04:35:10;29.37;;;22.43;;
13941;SDS011;7043;51.630;7.254;2023-02-16T04:37:36;31.83;;;22.80;;
13941;SDS011;7043;51.630;7.254;2023-02-16T04:40:03;30.27;;;22.80;;
13941;SDS011;7043;51.630;7.254;2023-02-16T04:42:29;30.43;;;22.63;;
13941;SDS011;7043;51.630;7.254;2023-02-16T04:44:56;32.07;;;23.23;;
13941;SDS011;7043;51.630;7.254;2023-02-16T04:47:22;30.53;;;23.03;;
13941;SDS011;7043;51.630;7.254;2023-02-16T04:49:50;32.03;;;23.73;;
13941;SDS011;7043;51.630;7.254;2023-02-16T04:52:16;29.80;;;22.83;;
13941;SDS011;7043;51.630;7.254;2023-02-16T04:54:42;30.60;;;23.80;;
13941;SDS011;7043;51.630;7.254;2023-02-16T04:57:08;32.03;;;22.07;;
13941;SDS011;7043;51.630;7.254;2023-02-16T04:59:34;30.50;;;23.20;;
13941;SDS011;7043;51.630;7.254;2023-02-16T05:02:00;30.70;;;23.80;;
13941;SDS011;7043;51.630;7.254;2023-02-16T05:04:27;31.60;;;22.43;;
13941;SDS011;7043;51.630;7.254;2023-02-16T05:06:53;29.77;;;22.73;;
13941;SDS011;7043;51.630;7.254;2023-02-16T05:09:19;29.73;;;22.57;;
13941;SDS011;7043;51.630;7.254;2023-02-16T05:11:45;31.13;;;23.27;;
13941;SDS011;7043;51.630;7.254;2023-02-16T05:14:30;30.83;;;23.37;;
13941;SDS011;7043;51.630;7.254;2023-02-16T05:17:06;30.77;;;23.13;;
13941;SDS011;7043;51.630;7.254;2023-02-16T05:19:32;27.60;;;22.27;;
13941;SDS011;7043;51.630;7.254;2023-02-16T05:21:58;32.40;;;23.40;;
13941;SDS011;7043;51.630;7.254;2023-02-16T05:24:24;31.00;;;22.00;;
13941;SDS011;7043;51.630;7.254;2023-02-16T05:26:50;30.17;;;22.47;;
13941;SDS011;7043;51.630;7.254;2023-02-16T05:29:16;30.23;;;23.10;;
13941;SDS011;7043;51.630;7.254;2023-02-16T05:31:42;31.27;;;23.93;;
13941;SDS011;7043;51.630;7.254;2023-02-16T05:34:08;30.07;;;22.30;;
13941;SDS011;7043;51.630;7.254;2023-02-16T05:36:34;32.53;;;23.27;;
13941;SDS011;7043;51.630;7.254;2023-02-16T05:39:00;33.73;;;23.30;;
13941;SDS011;7043;51.630;7.254;2023-02-16T05:41:26;31.20;;;23.57;;
13941;SDS011;7043;51.630;7.254;2023-02-16T05:43:53;32.07;;;23.13;;
13941;SDS011;7043;51.630;7.254;2023-02-16T05:46:22;30.30;;;23.37;;
13941;SDS011;7043;51.630;7.254;2023-02-16T05:48:49;30.17;;;22.53;;
13941;SDS011;7043;51.630;7.254;2023-02-16T05:51:15;30.83;;;23.47;;
13941;SDS011;7043;51.630;7.254;2023-02-16T05:53:41;30.87;;;22.63;;
13941;SDS011;7043;51.630;7.254;2023-02-16T05:56:07;30.87;;;22.87;;
13941;SDS011;7043;51.630;7.254;2023-02-16T05:58:33;32.57;;;22.77;;
13941;SDS011;7043;51.630;7.254;2023-02-16T06:00:59;31.40;;;22.67;;
13941;SDS011;7043;51.630;7.254;2023-02-16T06:03:25;29.97;;;22.73;;
13941;SDS011;7043;51.630;7.254;2023-02-16T06:05:56;32.87;;;23.37;;
13941;SDS011;7043;51.630;7.254;2023-02-16T06:08:22;30.53;;;22.90;;
13941;SDS011;7043;51.630;7.254;2023-02-16T06:10:49;30.53;;;23.57;;
13941;SDS011;7043;51.630;7.254;2023-02-16T06:13:15;32.67;;;23.27;;
13941;SDS011;7043;51.630;7.254;2023-02-16T06:15:41;30.77;;;24.17;;
13941;SDS011;7043;51.630;7.254;2023-02-16T06:18:08;29.67;;;23.30;;
13941;SDS011;7043;51.630;7.254;2023-02-16T06:20:35;31.80;;;23.70;;
13941;SDS011;7043;51.630;7.254;2023-02-16T06:23:01;31.33;;;23.43;;
13941;SDS011;7043;51.630;7.254;2023-02-16T06:25:27;30.70;;;23.53;;
13941;SDS011;7043;51.630;7.254;2023-02-16T06:27:53;31.97;;;23.73;;
13941;SDS011;7043;51.630;7.254;2023-02-16T06:30:21;29.93;;;23.20;;
13941;SDS011;7043;51.630;7.254;2023-02-16T06:32:47;31.57;;;24.30;;
13941;SDS011;7043;51.630;7.254;2023-02-16T06:35:13;32.80;;;24.23;;
13941;SDS011;7043;51.630;7.254;2023-02-16T06:37:39;30.83;;;23.80;;
13941;SDS011;7043;51.630;7.254;2023-02-16T06:40:05;31.63;;;23.00;;
13941;SDS011;7043;51.630;7.254;2023-02-16T06:42:34;34.00;;;23.83;;
13941;SDS011;7043;51.630;7.254;2023-02-16T06:45:00;32.43;;;23.60;;
13941;SDS011;7043;51.630;7.254;2023-02-16T06:47:26;31.33;;;23.57;;
13941;SDS011;7043;51.630;7.254;2023-02-16T06:49:52;32.17;;;23.93;;
13941;SDS011;7043;51.630;7.254;2023-02-16T06:52:18;33.60;;;24.80;;
13941;SDS011;7043;51.630;7.254;2023-02-16T06:54:44;34.40;;;23.90;;
13941;SDS011;7043;51.630;7.254;2023-02-16T06:57:10;34.67;;;26.20;;
13941;SDS011;7043;51.630;7.254;2023-02-16T06:59:36;33.27;;;24.10;;
13941;SDS011;7043;51.630;7.254;2023-02-16T07:02:02;32.57;;;24.47;;
13941;SDS011;7043;51.630;7.254;2023-02-16T07:04:28;28.87;;;22.73;;
13941;SDS011;7043;51.630;7.254;2023-02-16T07:06:54;32.03;;;23.73;;
13941;SDS011;7043;51.630;7.254;2023-02-16T07:09:20;29.30;;;23.03;;
13941;SDS011;7043;51.630;7.254;2023-02-16T07:11:46;32.70;;;24.20;;
13941;SDS011;7043;51.630;7.254;2023-02-16T07:14:12;32.13;;;24.57;;
13941;SDS011;7043;51.630;7.254;2023-02-16T07:16:38;30.20;;;23.30;;
13941;SDS011;7043;51.630;7.254;2023-02-16T07:19:04;31.57;;;23.50;;
13941;SDS011;7043;51.630;7.254;2023-02-16T07:21:32;32.67;;;23.10;;
13941;SDS011;7043;51.630;7.254;2023-02-16T07:23:58;31.13;;;22.87;;
13941;SDS011;7043;51.630;7.254;2023-02-16T07:26:24;32.77;;;22.93;;
13941;SDS011;7043;51.630;7.254;2023-02-16T07:28:50;32.00;;;23.77;;
13941;SDS011;7043;51.630;7.254;2023-02-16T07:31:19;29.23;;;23.10;;
13941;SDS011;7043;51.630;7.254;2023-02-16T07:33:45;33.70;;;23.60;;
13941;SDS011;7043;51.630;7.254;2023-02-16T07:36:12;33.90;;;23.87;;
13941;SDS011;7043;51.630;7.254;2023-02-16T07:38:38;30.43;;;23.43;;
13941;SDS011;7043;51.630;7.254;2023-02-16T07:41:07;31.80;;;22.60;;
13941;SDS011;7043;51.630;7.254;2023-02-16T07:43:33;32.60;;;23.60;;
13941;SDS011;7043;51.630;7.254;2023-02-16T07:45:59;32.17;;;23.30;;
13941;SDS011;7043;51.630;7.254;2023-02-16T07:48:25;29.20;;;22.07;;
13941;SDS011;7043;51.630;7.254;2023-02-16T07:50:51;34.23;;;23.70;;
13941;SDS011;7043;51.630;7.254;2023-02-16T07:53:17;29.63;;;22.63;;
13941;SDS011;7043;51.630;7.254;2023-02-16T07:55:44;30.53;;;23.47;;
13941;SDS011;7043;51.630;7.254;2023-02-16T07:58:11;30.33;;;23.37;;
13941;SDS011;7043;51.630;7.254;2023-02-16T08:00:55;31.03;;;23.50;;
13941;SDS011;7043;51.630;7.254;2023-02-16T08:03:21;28.73;;;22.10;;
13941;SDS011;7043;51.630;7.254;2023-02-16T08:05:49;32.27;;;22.63;;
13941;SDS011;7043;51.630;7.254;2023-02-16T08:08:14;30.30;;;22.03;;
13941;SDS011;7043;51.630;7.254;2023-02-16T08:10:40;31.37;;;22.30;;
13941;SDS011;7043;51.630;7.254;2023-02-16T08:13:06;29.40;;;21.53;;
13941;SDS011;7043;51.630;7.254;2023-02-16T08:15:32;32.77;;;22.70;;
13941;SDS011;7043;51.630;7.254;2023-02-16T08:17:58;28.67;;;21.77;;
13941;SDS011;7043;51.630;7.254;2023-02-16T08:20:24;27.40;;;21.80;;
13941;SDS011;7043;51.630;7.254;2023-02-16T08:22:52;28.23;;;21.40;;
13941;SDS011;7043;51.630;7.254;2023-02-16T08:25:18;30.23;;;21.73;;
13941;SDS011;7043;51.630;7.254;2023-02-16T08:27:44;28.50;;;22.50;;
13941;SDS011;7043;51.630;7.254;2023-02-16T08:30:10;32.10;;;22.90;;
13941;SDS011;7043;51.630;7.254;2023-02-16T08:32:38;30.27;;;20.87;;
13941;SDS011;7043;51.630;7.254;2023-02-16T08:35:05;29.07;;;22.23;;
13941;SDS011;7043;51.630;7.254;2023-02-16T08:37:31;27.87;;;21.50;;
13941;SDS011;7043;51.630;7.254;2023-02-16T08:39:57;27.97;;;21.53;;
13941;SDS011;7043;51.630;7.254;2023-02-16T08:42:24;29.97;;;21.67;;
13941;SDS011;7043;51.630;7.254;2023-02-16T08:44:51;26.83;;;21.80;;
13941;SDS011;7043;51.630;7.254;2023-02-16T08:47:17;29.33;;;21.30;;
13941;SDS011;7043;51.630;7.254;2023-02-16T08:49:44;27.67;;;20.70;;
13941;SDS011;7043;51.630;7.254;2023-02-16T08:52:10;27.67;;;21.27;;
13941;SDS011;7043;51.630;7.254;2023-02-16T08:54:36;26.30;;;20.47;;
13941;SDS011;7043;51.630;7.254;2023-02-16T08:57:03;26.93;;;20.30;;
13941;SDS011;7043;51.630;7.254;2023-02-16T08:59:30;27.10;;;21.30;;
13941;SDS011;7043;51.630;7.254;2023-02-16T09:01:57;28.00;;;20.23;;
13941;SDS011;7043;51.630;7.254;2023-02-16T09:04:24;28.00;;;20.20;;
13941;SDS011;7043;51.630;7.254;2023-02-16T09:06:53;27.60;;;21.13;;
13941;SDS011;7043;51.630;7.254;2023-02-16T09:09:20;25.83;;;19.80;;
13941;SDS011;7043;51.630;7.254;2023-02-16T09:11:46;25.33;;;19.97;;
13941;SDS011;7043;51.630;7.254;2023-02-16T09:14:12;25.63;;;20.13;;
13941;SDS011;7043;51.630;7.254;2023-02-16T09:16:38;29.20;;;20.73;;
13941;SDS011;7043;51.630;7.254;2023-02-16T09:19:09;26.80;;;19.77;;
13941;SDS011;7043;51.630;7.254;2023-02-16T09:21:35;25.37;;;19.97;;
13941;SDS011;7043;51.630;7.254;2023-02-16T09:24:02;27.60;;;20.63;;
13941;SDS011;7043;51.630;7.254;2023-02-16T09:26:29;26.87;;;20.10;;
13941;SDS011;7043;51.630;7.254;2023-02-16T09:28:56;29.43;;;21.23;;
13941;SDS011;7043;51.630;7.254;2023-02-16T09:31:23;25.90;;;20.10;;
13941;SDS011;7043;51.630;7.254;2023-02-16T09:33:50;26.37;;;19.17;;
13941;SDS011;7043;51.630;7.254;2023-02-16T09:36:16;26.33;;;20.27;;
13941;SDS011;7043;51.630;7.254;2023-02-16T09:38:42;29.80;;;19.67;;
13941;SDS011;7043;51.630;7.254;2023-02-16T09:43:58;26.10;;;18.27;;
13941;SDS011;7043;51.630;7.254;2023-02-16T09:46:25;22.80;;;17.80;;
13941;SDS011;7043;51.630;7.254;2023-02-16T09:48:51;24.80;;;18.47;;
13941;SDS011;7043;51.630;7.254;2023-02-16T09:51:22;23.07;;;18.97;;
13941;SDS011;7043;51.630;7.254;2023-02-16T09:53:51;23.67;;;19.03;;
13941;SDS011;7043;51.630;7.254;2023-02-16T09:59:18;23.63;;;19.27;;
13941;SDS011;7043;51.630;7.254;2023-02-16T10:04:36;25.23;;;20.10;;
13941;SDS011;7043;51.630;7.254;2023-02-16T10:09:39;24.37;;;19.43;;
13941;SDS011;7043;51.630;7.254;2023-02-16T10:12:08;26.67;;;20.93;;
13941;SDS011;7043;51.630;7.254;2023-02-16T10:14:48;26.20;;;19.87;;
13941;SDS011;7043;51.630;7.254;2023-02-16T10:22:20;23.47;;;19.47;;
13941;SDS011;7043;51.630;7.254;2023-02-16T10:27:21;25.47;;;19.23;;
13941;SDS011;7043;51.630;7.254;2023-02-16T10:29:47;23.23;;;19.40;;
13941;SDS011;7043;51.630;7.254;2023-02-16T10:32:17;24.17;;;19.33;;
13941;SDS011;7043;51.630;7.254;2023-02-16T10:34:48;23.27;;;18.10;;
13941;SDS011;7043;51.630;7.254;2023-02-16T10:37:18;23.63;;;18.23;;
13941;SDS011;7043;51.630;7.254;2023-02-16T10:39:48;24.00;;;19.17;;
13941;SDS011;7043;51.630;7.254;2023-02-16T10:42:26;24.83;;;19.53;;
13941;SDS011;7043;51.630;7.254;2023-02-16T10:44:57;25.33;;;19.53;;
13941;SDS011;7043;51.630;7.254;2023-02-16T10:47:35;24.00;;;18.63;;
13941;SDS011;7043;51.630;7.254;2023-02-16T10:50:02;26.53;;;21.23;;
13941;SDS011;7043;51.630;7.254;2023-02-16T10:52:30;24.40;;;19.80;;
13941;SDS011;7043;51.630;7.254;2023-02-16T10:54:58;23.93;;;19.30;;
13941;SDS011;7043;51.630;7.254;2023-02-16T10:57:25;25.77;;;20.03;;
13941;SDS011;7043;51.630;7.254;2023-02-16T10:59:51;24.73;;;19.17;;
13941;SDS011;7043;51.630;7.254;2023-02-16T11:02:19;27.23;;;21.17;;
13941;SDS011;7043;51.630;7.254;2023-02-16T11:04:48;24.07;;;17.90;;
13941;SDS011;7043;51.630;7.254;2023-02-16T11:07:20;22.77;;;17.97;;
13941;SDS011;7043;51.630;7.254;2023-02-16T11:09:47;25.97;;;20.43;;
13941;SDS011;7043;51.630;7.254;2023-02-16T11:14:50;26.07;;;20.53;;
13941;SDS011;7043;51.630;7.254;2023-02-16T11:17:17;24.23;;;20.50;;
13941;SDS011;7043;51.630;7.254;2023-02-16T11:19:49;27.57;;;22.30;;
13941;SDS011;7043;51.630;7.254;2023-02-16T11:22:23;27.03;;;20.87;;
13941;SDS011;7043;51.630;7.254;2023-02-16T11:24:50;26.47;;;20.73;;
13941;SDS011;7043;51.630;7.254;2023-02-16T11:27:22;23.70;;;19.30;;
13941;SDS011;7043;51.630;7.254;2023-02-16T11:29:48;25.10;;;20.20;;
13941;SDS011;7043;51.630;7.254;2023-02-16T11:32:18;26.60;;;21.90;;
13941;SDS011;7043;51.630;7.254;2023-02-16T11:34:48;25.67;;;21.63;;
13941;SDS011;7043;51.630;7.254;2023-02-16T11:37:16;27.27;;;22.37;;
13941;SDS011;7043;51.630;7.254;2023-02-16T11:40:03;26.40;;;22.63;;
13941;SDS011;7043;51.630;7.254;2023-02-16T11:42:32;26.10;;;21.23;;
13941;SDS011;7043;51.630;7.254;2023-02-16T11:44:59;26.03;;;21.93;;
13941;SDS011;7043;51.630;7.254;2023-02-16T11:47:33;26.20;;;21.80;;
13941;SDS011;7043;51.630;7.254;2023-02-16T11:52:37;28.50;;;22.77;;
13941;SDS011;7043;51.630;7.254;2023-02-16T11:55:03;27.50;;;22.67;;
13941;SDS011;7043;51.630;7.254;2023-02-16T11:57:31;28.53;;;23.07;;
13941;SDS011;7043;51.630;7.254;2023-02-16T11:59:58;28.07;;;24.03;;
13941;SDS011;7043;51.630;7.254;2023-02-16T12:04:59;30.23;;;24.70;;
13941;SDS011;7043;51.630;7.254;2023-02-16T12:13:09;32.40;;;24.80;;
13941;SDS011;7043;51.630;7.254;2023-02-16T12:18:17;31.97;;;24.77;;
13941;SDS011;7043;51.630;7.254;2023-02-16T12:23:32;33.13;;;26.80;;
13941;SDS011;7043;51.630;7.254;2023-02-16T12:28:47;29.13;;;25.27;;
13941;SDS011;7043;51.630;7.254;2023-02-16T12:31:23;33.27;;;27.23;;
13941;SDS011;7043;51.630;7.254;2023-02-16T12:39:01;35.97;;;26.37;;
13941;SDS011;7043;51.630;7.254;2023-02-16T12:44:01;31.57;;;25.47;;
13941;SDS011;7043;51.630;7.254;2023-02-16T12:46:41;30.47;;;25.47;;
13941;SDS011;7043;51.630;7.254;2023-02-16T12:51:42;29.40;;;25.37;;
13941;SDS011;7043;51.630;7.254;2023-02-16T12:54:15;30.33;;;25.60;;
13941;SDS011;7043;51.630;7.254;2023-02-16T12:56:44;31.03;;;25.27;;
13941;SDS011;7043;51.630;7.254;2023-02-16T13:01:39;30.93;;;24.30;;
13941;SDS011;7043;51.630;7.254;2023-02-16T13:06:42;31.83;;;25.10;;
13941;SDS011;7043;51.630;7.254;2023-02-16T13:11:49;31.17;;;25.00;;
13941;SDS011;7043;51.630;7.254;2023-02-16T13:14:28;31.87;;;26.10;;
13941;SDS011;7043;51.630;7.254;2023-02-16T13:16:59;31.03;;;25.87;;
13941;SDS011;7043;51.630;7.254;2023-02-16T13:19:26;32.03;;;24.07;;
13941;SDS011;7043;51.630;7.254;2023-02-16T13:25:08;30.97;;;24.20;;
13941;SDS011;7043;51.630;7.254;2023-02-16T13:35:20;34.77;;;26.83;;
13941;SDS011;7043;51.630;7.254;2023-02-16T13:43:33;34.23;;;27.10;;
13941;SDS011;7043;51.630;7.254;2023-02-16T13:46:10;36.03;;;28.17;;
13941;SDS011;7043;51.630;7.254;2023-02-16T13:48:38;36.73;;;28.93;;
13941;SDS011;7043;51.630;7.254;2023-02-16T13:51:17;37.93;;;30.10;;
13941;SDS011;7043;51.630;7.254;2023-02-16T13:53:49;36.80;;;29.93;;
13941;SDS011;7043;51.630;7.254;2023-02-16T13:58:58;38.03;;;31.13;;
13941;SDS011;7043;51.630;7.254;2023-02-16T14:03:58;37.60;;;30.00;;
13941;SDS011;7043;51.630;7.254;2023-02-16T14:12:37;36.03;;;30.57;;
13941;SDS011;7043;51.630;7.254;2023-02-16T14:14:37;38.50;;;30.43;;
13941;SDS011;7043;51.630;7.254;2023-02-16T14:24:52;40.03;;;30.97;;
13941;SDS011;7043;51.630;7.254;2023-02-16T14:27:38;36.50;;;30.73;;
13941;SDS011;7043;51.630;7.254;2023-02-16T14:30:04;34.30;;;29.80;;
13941;SDS011;7043;51.630;7.254;2023-02-16T14:32:37;36.67;;;30.73;;
13941;SDS011;7043;51.630;7.254;2023-02-16T14:35:04;37.77;;;30.13;;
13941;SDS011;7043;51.630;7.254;2023-02-16T14:40:17;40.13;;;32.27;;
13941;SDS011;7043;51.630;7.254;2023-02-16T14:42:56;40.90;;;33.37;;
13941;SDS011;7043;51.630;7.254;2023-02-16T14:56:04;38.40;;;31.90;;
13941;SDS011;7043;51.630;7.254;2023-02-16T15:01:11;38.47;;;30.93;;
13941;SDS011;7043;51.630;7.254;2023-02-16T15:03:39;37.13;;;31.57;;
13941;SDS011;7043;51.630;7.254;2023-02-16T15:06:05;36.57;;;30.47;;
13941;SDS011;7043;51.630;7.254;2023-02-16T15:08:36;39.13;;;31.47;;
13941;SDS011;7043;51.630;7.254;2023-02-16T15:11:20;36.97;;;31.07;;
13941;SDS011;7043;51.630;7.254;2023-02-16T15:13:50;37.40;;;30.57;;
13941;SDS011;7043;51.630;7.254;2023-02-16T15:16:18;38.43;;;31.27;;
13941;SDS011;7043;51.630;7.254;2023-02-16T15:18:49;36.63;;;30.17;;
13941;SDS011;7043;51.630;7.254;2023-02-16T15:21:20;34.47;;;29.30;;
13941;SDS011;7043;51.630;7.254;2023-02-16T15:23:47;34.50;;;29.33;;
13941;SDS011;7043;51.630;7.254;2023-02-16T15:26:16;36.97;;;31.50;;
13941;SDS011;7043;51.630;7.254;2023-02-16T15:28:49;37.60;;;30.50;;
13941;SDS011;7043;51.630;7.254;2023-02-16T15:31:16;35.23;;;30.03;;
13941;SDS011;7043;51.630;7.254;2023-02-16T15:36:43;35.73;;;30.33;;
13941;SDS011;7043;51.630;7.254;2023-02-16T15:39:13;33.83;;;29.43;;
13941;SDS011;7043;51.630;7.254;2023-02-16T15:41:43;38.43;;;29.03;;
13941;SDS011;7043;51.630;7.254;2023-02-16T15:44:29;35.00;;;29.33;;
13941;SDS011;7043;51.630;7.254;2023-02-16T15:47:05;32.87;;;28.43;;
13941;SDS011;7043;51.630;7.254;2023-02-16T15:49:32;36.60;;;30.77;;
13941;SDS011;7043;51.630;7.254;2023-02-16T15:52:00;35.40;;;29.53;;
13941;SDS011;7043;51.630;7.254;2023-02-16T15:56:53;32.70;;;27.07;;
13941;SDS011;7043;51.630;7.254;2023-02-16T15:59:38;34.47;;;27.57;;
13941;SDS011;7043;51.630;7.254;2023-02-16T16:02:18;32.77;;;28.37;;
13941;SDS011;7043;51.630;7.254;2023-02-16T16:04:50;34.10;;;27.43;;
13941;SDS011;7043;51.630;7.254;2023-02-16T16:07:30;34.93;;;27.60;;
13941;SDS011;7043;51.630;7.254;2023-02-16T16:09:59;32.23;;;26.73;;
13941;SDS011;7043;51.630;7.254;2023-02-16T16:12:26;31.17;;;27.33;;
13941;SDS011;7043;51.630;7.254;2023-02-16T16:14:54;31.23;;;27.03;;
13941;SDS011;7043;51.630;7.254;2023-02-16T16:17:23;34.47;;;27.83;;
13941;SDS011;7043;51.630;7.254;2023-02-16T16:19:52;34.27;;;27.77;;
13941;SDS011;7043;51.630;7.254;2023-02-16T16:22:35;33.73;;;27.47;;
13941;SDS011;7043;51.630;7.254;2023-02-16T16:25:05;34.63;;;28.80;;
13941;SDS011;7043;51.630;7.254;2023-02-16T16:27:48;32.63;;;27.57;;
13941;SDS011;7043;51.630;7.254;2023-02-16T16:33:02;33.73;;;27.90;;
13941;SDS011;7043;51.630;7.254;2023-02-16T16:35:36;31.77;;;26.10;;
13941;SDS011;7043;51.630;7.254;2023-02-16T16:38:02;33.07;;;27.20;;
13941;SDS011;7043;51.630;7.254;2023-02-16T16:40:32;32.43;;;26.70;;
13941;SDS011;7043;51.630;7.254;2023-02-16T16:45:45;31.37;;;26.63;;
13941;SDS011;7043;51.630;7.254;2023-02-16T16:48:33;33.70;;;27.13;;
13941;SDS011;7043;51.630;7.254;2023-02-16T16:53:39;32.10;;;26.73;;
13941;SDS011;7043;51.630;7.254;2023-02-16T16:56:07;31.27;;;26.57;;
13941;SDS011;7043;51.630;7.254;2023-02-16T16:58:33;32.77;;;27.23;;
13941;SDS011;7043;51.630;7.254;2023-02-16T17:00:59;31.53;;;26.43;;
13941;SDS011;7043;51.630;7.254;2023-02-16T17:03:25;30.53;;;25.33;;
13941;SDS011;7043;51.630;7.254;2023-02-16T17:05:51;32.57;;;25.53;;
13941;SDS011;7043;51.630;7.254;2023-02-16T17:08:17;31.73;;;25.80;;
13941;SDS011;7043;51.630;7.254;2023-02-16T17:10:43;29.97;;;26.33;;
13941;SDS011;7043;51.630;7.254;2023-02-16T17:13:13;31.07;;;26.07;;
13941;SDS011;7043;51.630;7.254;2023-02-16T17:15:51;31.77;;;25.97;;
13941;SDS011;7043;51.630;7.254;2023-02-16T17:18:17;28.97;;;25.13;;
13941;SDS011;7043;51.630;7.254;2023-02-16T17:20:44;30.40;;;26.43;;
13941;SDS011;7043;51.630;7.254;2023-02-16T17:23:11;32.07;;;26.27;;
13941;SDS011;7043;51.630;7.254;2023-02-16T17:25:38;32.60;;;26.53;;
13941;SDS011;7043;51.630;7.254;2023-02-16T17:28:04;32.50;;;25.00;;